Home > Products > Valid Products > TAF

000
FTUS43 KGRR 010328 AAB
TAFGRR
TAF AMD
KGRR 010328Z 0103/0124 31008KT P6SM BKN009
     FM010600 34007KT P6SM OVC018
     FM011800 31010KT P6SM BKN050=



000
FTUS43 KGRR 010305 AAA
TAFMKG
TAF AMD
KMKG 010305Z 0103/0124 35012KT P6SM SCT015
     FM010400 34007KT P6SM BKN015
     FM011800 31010KT P6SM BKN050=



000
FTUS43 KGRR 010058 AAA
TAFLAN
TAF AMD
KLAN 010058Z 0101/0124 30008KT P6SM VCSH BKN025
     FM010400 34007KT P6SM OVC020
     FM011800 31010KT P6SM BKN050=



000
FTUS43 KGRR 010058 AAA
TAFLAN
TAF AMD
KLAN 010058Z 0101/0124 30008KT P6SM VCSH BKN025
     FM010400 34007KT P6SM OVC020
     FM011800 31010KT P6SM BKN050=



000
FTUS43 KGRR 010057 AAA
TAFAZO
TAF AMD
KAZO 010057Z 0101/0124 31008KT P6SM OVC017
     FM010600 34007KT P6SM OVC018
     FM011800 31010KT P6SM BKN050=



000
FTUS43 KGRR 010057 AAA
TAFAZO
TAF AMD
KAZO 010057Z 0101/0124 31008KT P6SM OVC017
     FM010600 34007KT P6SM OVC018
     FM011800 31010KT P6SM BKN050=



000
FTUS43 KGRR 302339
TAFJXN
TAF
KJXN 302339Z 0100/0124 32005KT P6SM SCT025 BKN035
     FM010600 34007KT P6SM OVC020
     FM011800 31010KT P6SM BKN050=



000
FTUS43 KGRR 302339
TAFAZO
TAF
KAZO 302339Z 0100/0124 31008KT P6SM BKN025
     FM010100 31008KT P6SM SCT025
     FM010600 34007KT P6SM OVC018
     FM011800 31010KT P6SM BKN050=



000
FTUS43 KGRR 302339
TAFMKG
TAF
KMKG 302339Z 0100/0124 31008KT P6SM SCT015
     FM010600 34007KT P6SM OVC020
     FM011800 31010KT P6SM BKN050=



000
FTUS43 KGRR 302339
TAFLAN
TAF
KLAN 302339Z 0100/0124 30008KT P6SM BKN035
     FM010600 34007KT P6SM OVC020
     FM011800 31010KT P6SM BKN050=



000
FTUS43 KGRR 302339
TAFGRR
TAF
KGRR 302339Z 0100/0124 29008KT 6SM HZ BKN025
     FM010100 31008KT P6SM SCT025
     FM010600 34007KT P6SM OVC018
     FM011800 31010KT P6SM BKN050=



000
FTUS43 KGRR 302339
TAFBTL
TAF
KBTL 302339Z 0100/0124 31010KT P6SM BKN035
     FM010600 34007KT P6SM OVC020
     FM011800 31010KT P6SM BKN050=



000
FTUS43 KGRR 302339
TAFGRR
TAF
KGRR 302339Z 0100/0124 29008KT 6SM HZ BKN025
     FM010100 31008KT P6SM SCT025
     FM010600 34007KT P6SM OVC018
     FM011800 31010KT P6SM BKN050=



000
FTUS43 KGRR 302339
TAFJXN
TAF
KJXN 302339Z 0100/0124 32005KT P6SM SCT025 BKN035
     FM010600 34007KT P6SM OVC020
     FM011800 31010KT P6SM BKN050=



000
FTUS43 KGRR 302339
TAFBTL
TAF
KBTL 302339Z 0100/0124 31010KT P6SM BKN035
     FM010600 34007KT P6SM OVC020
     FM011800 31010KT P6SM BKN050=



000
FTUS43 KGRR 302339
TAFAZO
TAF
KAZO 302339Z 0100/0124 31008KT P6SM BKN025
     FM010100 31008KT P6SM SCT025
     FM010600 34007KT P6SM OVC018
     FM011800 31010KT P6SM BKN050=



000
FTUS43 KGRR 302339
TAFMKG
TAF
KMKG 302339Z 0100/0124 31008KT P6SM SCT015
     FM010600 34007KT P6SM OVC020
     FM011800 31010KT P6SM BKN050=



000
FTUS43 KGRR 302339
TAFLAN
TAF
KLAN 302339Z 0100/0124 30008KT P6SM BKN035
     FM010600 34007KT P6SM OVC020
     FM011800 31010KT P6SM BKN050=



000
FTUS43 KGRR 302110 AAC
TAFGRR
TAF AMD
KGRR 302110Z 3021/0118 31010KT P6SM BKN025
     FM010200 31009KT P6SM SCT050
     FM010700 30006KT P6SM OVC015
     FM011100 30007KT P6SM OVC007
     FM011500 31008KT P6SM BKN025=



000
FTUS43 KGRR 302109 AAB
TAFAZO
TAF AMD
KAZO 302109Z 3021/0118 30010KT P6SM SCT025
     FM302300 31010KT P6SM BKN025
     FM011100 30007KT P6SM OVC007
     FM011500 31008KT P6SM BKN025=



000
FTUS43 KGRR 302107 AAB
TAFBTL
TAF AMD
KBTL 302107Z 3021/0118 26012KT P6SM SCT030
     FM302300 31010KT P6SM BKN015
     FM011100 30007KT P6SM OVC007
     FM011500 31008KT P6SM BKN025=



000
FTUS43 KGRR 302106 AAB
TAFLAN
TAF AMD
KLAN 302106Z 3021/0118 25003KT P6SM SCT025 BKN060
     FM302200 31007KT P6SM OVC015
     FM010400 31006KT P6SM OVC015
     FM011500 31008KT P6SM OVC015=



000
FTUS43 KGRR 302014 AAB
TAFMKG
TAF AMD
KMKG 302014Z 3020/0118 28010KT 5SM HZ BKN009 BKN013 OVC029
     FM302100 32010KT P6SM OVC025
     FM010000 33011KT P6SM SCT250
     FM010600 34007KT P6SM OVC015
     FM010900 33006KT P6SM OVC004
     FM011500 31007KT P6SM OVC015=



000
FTUS43 KGRR 301910 AAA
TAFJXN
TAF AMD
KJXN 301910Z 3019/0118 23006KT P6SM VCTS FEW035 BKN045CB BKN050
      TEMPO 3020/3023 2SM +TSRA BR OVC015CB
     FM302300 31007KT P6SM OVC015
     FM010400 31006KT P6SM OVC007
     FM011500 31008KT P6SM OVC015=



000
FTUS43 KGRR 301908 AAA
TAFBTL
TAF AMD
KBTL 301908Z 3019/0118 25007KT P6SM SCT026 BKN040
      TEMPO 3019/3023 2SM +TSRA BR OVC012CB
     FM302300 31010KT P6SM BKN025
     FM010200 31009KT P6SM SCT050
     FM010700 30006KT P6SM OVC015
     FM011100 30007KT P6SM OVC007
     FM011500 31008KT P6SM BKN025=



000
FTUS43 KGRR 301908 AAA
TAFLAN
TAF AMD
KLAN 301908Z 3019/0118 25003KT P6SM VCTS SCT029CB BKN070 OVC090
      TEMPO 3019/3020 2SM +TSRA BKN015CB
     FM302000 28005KT 4SM -RA BR OVC015
     FM302300 31007KT P6SM OVC015
     FM010400 31006KT P6SM OVC007
     FM011500 31008KT P6SM OVC015=



000
FTUS43 KGRR 301907 AAA
TAFAZO
TAF AMD
KAZO 301907Z 3019/0118 28005KT P6SM BKN025 BKN035
      TEMPO 3019/3022 4SM SHRA BR OVC015
     FM302300 31010KT P6SM BKN025
     FM010200 31009KT P6SM SCT050
     FM010700 30006KT P6SM OVC015
     FM011100 30007KT P6SM OVC007
     FM011500 31008KT P6SM BKN025=



000
FTUS43 KGRR 301906 AAB
TAFGRR
TAF AMD
KGRR 301906Z 3019/0118 00000KT 5SM BR FEW006 BKN021 BKN060
      TEMPO 3019/3022 3SM SHRA BR OVC015
     FM302300 31010KT P6SM BKN025
     FM010200 31009KT P6SM SCT050
     FM010700 30006KT P6SM OVC015
     FM011100 30007KT P6SM OVC007
     FM011500 31008KT P6SM BKN025=



000
FTUS43 KGRR 301905 AAA
TAFMKG
TAF AMD
KMKG 301905Z 3019/0118 26007KT 5SM HZ BKN010 OVC023
     FM302100 32010KT P6SM OVC025
     FM010000 33011KT P6SM SCT250
     FM010600 34007KT P6SM OVC015
     FM010900 33006KT P6SM OVC004
     FM011500 31007KT P6SM OVC015=



000
FTUS43 KGRR 301905 AAA
TAFMKG
TAF AMD
KMKG 301905Z 3019/0118 26007KT 5SM HZ BKN010 OVC023
     FM302100 32010KT P6SM OVC025
     FM010000 33011KT P6SM SCT250
     FM010600 34007KT P6SM OVC015
     FM010900 33006KT P6SM OVC004
     FM011500 31007KT P6SM OVC015=



000
FTUS43 KGRR 301726
TAFJXN
TAF
KJXN 301726Z 3018/0118 20006KT P6SM VCTS BKN035CB OVC070
     FM302000 28005KT 4SM BR OVC015
     FM302300 31007KT P6SM OVC015
     FM010400 31006KT P6SM OVC007
     FM011500 31008KT P6SM OVC015=



000
FTUS43 KGRR 301726
TAFMKG
TAF
KMKG 301726Z 3018/0118 29006KT 6SM BR BKN006 OVC010
     FM302100 32010KT P6SM OVC025
     FM010000 33011KT P6SM SCT250
     FM010600 34007KT P6SM OVC015
     FM010900 33006KT P6SM OVC004
     FM011500 31007KT P6SM OVC015=



000
FTUS43 KGRR 301726
TAFBTL
TAF
KBTL 301726Z 3018/0118 19008KT P6SM OVC011
     FM302000 30009KT 4SM BR OVC009
     FM302300 31010KT P6SM BKN025
     FM010200 31009KT P6SM SCT050
     FM010700 30006KT P6SM OVC015
     FM011100 30007KT P6SM OVC007
     FM011500 31008KT P6SM BKN025=



000
FTUS43 KGRR 301726
TAFLAN
TAF
KLAN 301726Z 3018/0118 20005KT P6SM VCTS SCT023 SCT070CB BKN090
      TEMPO 3018/3020 2SM +TSRA BKN015CB
     FM302000 28005KT 4SM -RA BR OVC015
     FM302300 31007KT P6SM OVC015
     FM010400 31006KT P6SM OVC007
     FM011500 31008KT P6SM OVC015=



000
FTUS43 KGRR 301726
TAFAZO
TAF
KAZO 301726Z 3018/0118 21006KT P6SM BKN012 OVC018
     FM301900 30009KT 4SM BR OVC009
     FM302300 31010KT P6SM BKN025
     FM010200 31009KT P6SM SCT050
     FM010700 30006KT P6SM OVC015
     FM011100 30007KT P6SM OVC007
     FM011500 31008KT P6SM BKN025=



000
FTUS43 KGRR 301726
TAFGRR
TAF
KGRR 301726Z 3018/0118 11003KT 1 1/2SM -DZ BR OVC006
     FM301900 30009KT 4SM BR OVC009
     FM302300 31010KT P6SM BKN025
     FM010200 31009KT P6SM SCT050
     FM010700 30006KT P6SM OVC015
     FM011100 30007KT P6SM OVC007
     FM011500 31008KT P6SM BKN025=



000
FTUS43 KGRR 301643 AAA
TAFJXN
TAF AMD
KJXN 301643Z 3017/0112 VRB06KT P6SM VCSH SCT020 BKN045 OVC070
     FM301800 28011KT P6SM VCTS BKN025CB
     FM010200 30004KT P6SM OVC015
     FM010400 30004KT P6SM OVC007=



000
FTUS43 KGRR 301642 AAC
TAFBTL
TAF AMD
KBTL 301642Z 3017/0112 21007KT P6SM OVC011
     FM301800 28011KT P6SM VCTS BKN035CB
     FM010200 31008KT P6SM BKN025
     FM010800 33006KT P6SM BKN015=



000
FTUS43 KGRR 301642 AAC
TAFAZO
TAF AMD
KAZO 301642Z 3017/0112 23006KT P6SM VCSH OVC011
     FM301800 28011KT P6SM VCTS BKN035CB
     FM010200 31008KT P6SM BKN035
     FM010800 33006KT P6SM BKN015=



000
FTUS43 KGRR 301641 AAF
TAFMKG
TAF AMD
KMKG 301641Z 3017/0112 28007KT 1/2SM FG OVC002
     FM302000 32012G20KT P6SM BKN035
     FM010200 34008KT P6SM BKN035
     FM010600 33006KT P6SM BKN015=



000
FTUS43 KGRR 301641 AAF
TAFMKG
TAF AMD
KMKG 301641Z 3017/0112 28007KT 1/2SM FG OVC002
     FM302000 32012G20KT P6SM BKN035
     FM010200 34008KT P6SM BKN035
     FM010600 33006KT P6SM BKN015=



000
FTUS43 KGRR 301604 AAE
TAFMKG
TAF AMD
KMKG 301604Z 3016/0112 26005KT 1/2SM FG OVC002
     FM301700 30010KT 5SM BR OVC015
     FM302000 32012G20KT P6SM BKN035
     FM010200 34008KT P6SM BKN035
     FM010600 33006KT P6SM BKN015=



000
FTUS43 KGRR 301542 AAC
TAFGRR
TAF AMD
KGRR 301542Z 3016/0112 13004KT 2SM BR BKN008 OVC013
     FM301601 VRB03KT 5SM BR OVC009
     FM301800 28011KT P6SM VCTS BKN035CB
     FM010200 32008KT P6SM BKN035
     FM010800 33006KT P6SM BKN015=



000
FTUS43 KGRR 301537 AAB
TAFGRR
TAF AMD
KGRR 301537Z 3016/0112 16009KT 3SM TSRA SCT008 OVC014CB
     FM301601 VRB03KT 5SM BR OVC009
     FM301800 28011KT P6SM VCTS BKN035CB
     FM010200 32008KT P6SM BKN035
     FM010800 33006KT P6SM BKN015=



000
FTUS43 KGRR 301537 AAB
TAFGRR
TAF AMD
KGRR 301537Z 3016/0112 16009KT 3SM TSRA SCT008 OVC014CB
     FM301601 VRB03KT 5SM BR OVC009
     FM301800 28011KT P6SM VCTS BKN035CB
     FM010200 32008KT P6SM BKN035
     FM010800 33006KT P6SM BKN015=



000
FTUS43 KGRR 301514 AAA
TAFLAN
TAF AMD
KLAN 301514Z 3015/0112 VRB03KT P6SM VCSH SCT023 OVC060
     FM301600 19009KT P6SM VCTS BKN025CB OVC060
     FM301800 28011KT P6SM VCTS BKN035CB
     FM010200 31008KT P6SM BKN025
     FM010800 31005KT P6SM BKN015=



000
FTUS43 KGRR 301513 AAB
TAFBTL
TAF AMD
KBTL 301513Z 3015/0112 18009KT P6SM -RA OVC011
     FM301600 20010KT 6SM BR OVC006
     FM301800 28011KT P6SM VCTS BKN035CB
     FM010200 31008KT P6SM BKN025
     FM010800 33006KT P6SM BKN015=



000
FTUS43 KGRR 301511 AAB
TAFAZO
TAF AMD
KAZO 301511Z 3015/0112 19006KT P6SM VCSH OVC006
     FM301800 28011KT P6SM VCTS BKN035CB
     FM010200 31008KT P6SM BKN035
     FM010800 33006KT P6SM BKN015=



000
FTUS43 KGRR 301511 AAB
TAFAZO
TAF AMD
KAZO 301511Z 3015/0112 19006KT P6SM VCSH OVC006
     FM301800 28011KT P6SM VCTS BKN035CB
     FM010200 31008KT P6SM BKN035
     FM010800 33006KT P6SM BKN015=



000
FTUS43 KGRR 301505 AAE
TAFGRR
TAF AMD
KGRR 301505Z 3015/0112 17010KT P6SM TS BKN015CB OVC050
     FM301600 19010KT P6SM VCTS BKN015CB OVC050
     FM301800 28011KT P6SM VCTS BKN035CB
     FM010200 32008KT P6SM BKN035
     FM010800 33006KT P6SM BKN015=



000
FTUS43 KGRR 301433 AAD
TAFMKG
TAF AMD
KMKG 301433Z 3015/0112 10006KT 3/4SM -DZ BR VCSH OVC003
     FM301600 30007KT 2SM BR BKN015
     FM302000 32012G20KT P6SM BKN035
     FM010200 34008KT P6SM BKN035
     FM010600 33006KT P6SM BKN015=



000
FTUS43 KGRR 301433 AAD
TAFMKG
TAF AMD
KMKG 301433Z 3015/0112 10006KT 3/4SM -DZ BR VCSH OVC003
     FM301600 30007KT 2SM BR BKN015
     FM302000 32012G20KT P6SM BKN035
     FM010200 34008KT P6SM BKN035
     FM010600 33006KT P6SM BKN015=



000
FTUS43 KGRR 301358 AAC
TAFMKG
TAF AMD
KMKG 301358Z 3014/0112 VRB03KT 1SM BR VCSH OVC004
     FM301600 30007KT 2SM BR BKN015
     FM302000 32012G20KT P6SM BKN035
     FM010200 34008KT P6SM BKN035
     FM010600 33006KT P6SM BKN015=



000
FTUS43 KGRR 301358 AAC
TAFMKG
TAF AMD
KMKG 301358Z 3014/0112 VRB03KT 1SM BR VCSH OVC004
     FM301600 30007KT 2SM BR BKN015
     FM302000 32012G20KT P6SM BKN035
     FM010200 34008KT P6SM BKN035
     FM010600 33006KT P6SM BKN015=



000
FTUS43 KGRR 301318 AAB
TAFMKG
TAF AMD
KMKG 301318Z 3013/0112 00000KT 5SM -RA BR VCSH BKN006 OVC012
     FM301500 30007KT P6SM VCSH BKN025
     FM301800 32012G20KT P6SM BKN035
     FM010200 34008KT P6SM BKN035
     FM010600 33006KT P6SM BKN015=



000
FTUS43 KGRR 301300 AAB
TAFGRR
TAF AMD
KGRR 301300Z 3013/0112 14005KT P6SM -SHRA BKN020 BKN060 BKN160
     FM301400 18007KT P6SM VCSH BKN015
     FM301800 28011KT P6SM VCTS BKN035CB
     FM010200 32008KT P6SM BKN035
     FM010800 33006KT P6SM BKN015=



000
FTUS43 KGRR 301300 AAB
TAFGRR
TAF AMD
KGRR 301300Z 3013/0112 14005KT P6SM -SHRA BKN020 BKN060 BKN160
     FM301400 18007KT P6SM VCSH BKN015
     FM301800 28011KT P6SM VCTS BKN035CB
     FM010200 32008KT P6SM BKN035
     FM010800 33006KT P6SM BKN015=



000
FTUS43 KGRR 301252 AAA
TAFBTL
TAF AMD
KBTL 301252Z 3013/0112 17003KT P6SM VCSH OVC018
     FM301500 23007KT P6SM VCSH BKN008
     FM301800 28011KT P6SM VCTS BKN035CB
     FM010200 31008KT P6SM BKN025
     FM010800 33006KT P6SM BKN015=



000
FTUS43 KGRR 301252 AAA
TAFBTL
TAF AMD
KBTL 301252Z 3013/0112 17003KT P6SM VCSH OVC018
     FM301500 23007KT P6SM VCSH BKN008
     FM301800 28011KT P6SM VCTS BKN035CB
     FM010200 31008KT P6SM BKN025
     FM010800 33006KT P6SM BKN015=



000
FTUS43 KGRR 301251 AAA
TAFAZO
TAF AMD
KAZO 301251Z 3013/0112 16004KT P6SM VCSH OVC009
     FM301500 23007KT P6SM VCSH BKN015
     FM301800 28011KT P6SM VCTS BKN035CB
     FM010200 31008KT P6SM BKN035
     FM010800 33006KT P6SM BKN015=



000
FTUS43 KGRR 301251 AAA
TAFAZO
TAF AMD
KAZO 301251Z 3013/0112 16004KT P6SM VCSH OVC009
     FM301500 23007KT P6SM VCSH BKN015
     FM301800 28011KT P6SM VCTS BKN035CB
     FM010200 31008KT P6SM BKN035
     FM010800 33006KT P6SM BKN015=



000
FTUS43 KGRR 301250 AAA
TAFMKG
TAF AMD
KMKG 301250Z 3013/0112 16005KT 1 1/2SM -RA BR VCSH OVC008
     FM301500 30007KT P6SM VCSH BKN025
     FM301800 32012G20KT P6SM BKN035
     FM010200 34008KT P6SM BKN035
     FM010600 33006KT P6SM BKN015=



000
FTUS43 KGRR 301250 AAA
TAFMKG
TAF AMD
KMKG 301250Z 3013/0112 16005KT 1 1/2SM -RA BR VCSH OVC008
     FM301500 30007KT P6SM VCSH BKN025
     FM301800 32012G20KT P6SM BKN035
     FM010200 34008KT P6SM BKN035
     FM010600 33006KT P6SM BKN015=



000
FTUS43 KGRR 301148
TAFJXN
TAF
KJXN 301148Z 3012/0112 16005KT P6SM VCSH BKN025
     FM301500 23007KT P6SM VCSH BKN030
     FM301800 28011KT P6SM VCTS BKN035CB
     FM010200 31008KT P6SM BKN025
     FM010800 32005KT P6SM BKN015=



000
FTUS43 KGRR 301148
TAFBTL
TAF
KBTL 301148Z 3012/0112 16005KT P6SM VCSH BKN025
     FM301500 23007KT P6SM VCSH BKN030
     FM301800 28011KT P6SM VCTS BKN035CB
     FM010200 31008KT P6SM BKN025
     FM010800 33006KT P6SM BKN015=



000
FTUS43 KGRR 301148
TAFAZO
TAF
KAZO 301148Z 3012/0112 16005KT P6SM VCSH BKN015
     FM301500 23007KT P6SM VCSH BKN030
     FM301800 28011KT P6SM VCTS BKN035CB
     FM010200 31008KT P6SM BKN035
     FM010800 33006KT P6SM BKN015=



000
FTUS43 KGRR 301148
TAFLAN
TAF
KLAN 301148Z 3012/0112 16005KT P6SM VCSH BKN025
     FM301500 23007KT P6SM VCSH BKN030
     FM301800 28011KT P6SM VCTS BKN035CB
     FM010200 31008KT P6SM BKN025
     FM010800 31005KT P6SM BKN015=



000
FTUS43 KGRR 301148
TAFGRR
TAF
KGRR 301148Z 3012/0112 16005KT P6SM VCSH BKN025
     FM301500 18007KT P6SM VCSH BKN030
     FM301800 28011KT P6SM VCTS BKN035CB
     FM010200 32008KT P6SM BKN035
     FM010800 33006KT P6SM BKN015=



000
FTUS43 KGRR 301148
TAFMKG
TAF
KMKG 301148Z 3012/0112 16005KT P6SM VCSH BKN015
     FM301500 30007KT P6SM VCSH BKN025
     FM301800 32012G20KT P6SM BKN035
     FM010200 34008KT P6SM BKN035
     FM010600 33006KT P6SM BKN015=



000
FTUS43 KGRR 300520
TAFBTL
TAF
KBTL 300520Z 3006/0106 16006KT P6SM OVC020
     FM301000 18003KT 4SM BR OVC015
     FM301200 20003KT P6SM VCSH BKN035
     FM301400 24007KT P6SM VCTS BKN035CB
     FM010000 29007KT P6SM VCSH BKN035=



000
FTUS43 KGRR 300520
TAFBTL
TAF
KBTL 300520Z 3006/0106 16006KT P6SM OVC020
     FM301000 18003KT 4SM BR OVC015
     FM301200 20003KT P6SM VCSH BKN035
     FM301400 24007KT P6SM VCTS BKN035CB
     FM010000 29007KT P6SM VCSH BKN035=



000
FTUS43 KGRR 300520
TAFAZO
TAF
KAZO 300520Z 3006/0106 16004KT P6SM OVC020
     FM301000 18003KT 4SM BR OVC015
     FM301200 20003KT P6SM VCSH BKN035
     FM301400 24007KT P6SM VCTS BKN025CB
     FM010000 29007KT P6SM VCSH BKN035=



000
FTUS43 KGRR 300520
TAFGRR
TAF
KGRR 300520Z 3006/0106 14004KT P6SM SCT200
     FM301000 13003KT 4SM BR OVC015
     FM301200 15003KT P6SM VCSH BKN035
     FM301400 20007KT P6SM VCTS BKN035CB
     FM010000 29007KT P6SM VCSH BKN035=



000
FTUS43 KGRR 300520
TAFLAN
TAF
KLAN 300520Z 3006/0106 17006KT P6SM BKN030
     FM301000 18003KT 4SM BR BKN015
     FM301200 VRB03KT 1 1/2SM BR OVC008
     FM301400 24003KT 4SM BR OVC015
     FM301600 28006KT P6SM VCTS OVC035CB
     FM010000 29007KT P6SM VCSH BKN035=



000
FTUS43 KGRR 300520
TAFMKG
TAF
KMKG 300520Z 3006/0106 15003KT P6SM SCT200
     FM301000 17004KT 4SM BR VCSH OVC015
     FM301400 20007KT P6SM VCTS BKN035CB
     FM010000 29007KT P6SM VCSH BKN035=



000
FTUS43 KGRR 300520
TAFJXN
TAF
KJXN 300520Z 3006/0106 16006KT P6SM OVC025
     FM301000 14003KT 4SM BR BKN015
     FM301200 VRB03KT 1 1/2SM BR OVC008
     FM301400 24004KT 4SM BR OVC015
     FM301600 28006KT P6SM VCTS OVC035CB
     FM010000 29007KT P6SM VCSH BKN035=



000
FTUS43 KGRR 300248 AAA
TAFLAN
TAF AMD
KLAN 300248Z 3003/3024 17006KT P6SM BKN030
     FM300900 18003KT 4SM BR BKN015
     FM301100 VRB03KT 1 1/2SM BR OVC008
     FM301400 24003KT 4SM BR OVC015
     FM301600 28006KT P6SM VCTS OVC035CB=



000
FTUS43 KGRR 300246 AAB
TAFBTL
TAF AMD
KBTL 300246Z 3003/3024 16006KT P6SM OVC025
     FM300900 18003KT 4SM BR OVC015
     FM301200 20003KT P6SM VCSH BKN035
     FM301400 24007KT P6SM VCTS BKN035CB=



000
FTUS43 KGRR 300246 AAB
TAFAZO
TAF AMD
KAZO 300246Z 3003/3024 16004KT P6SM OVC025
     FM300900 18003KT 4SM BR OVC015
     FM301200 20003KT P6SM VCSH BKN035
     FM301400 24007KT P6SM VCTS BKN025CB=



000
FTUS43 KGRR 300246 AAB
TAFBTL
TAF AMD
KBTL 300246Z 3003/3024 16006KT P6SM OVC025
     FM300900 18003KT 4SM BR OVC015
     FM301200 20003KT P6SM VCSH BKN035
     FM301400 24007KT P6SM VCTS BKN035CB=



000
FTUS43 KGRR 300246 AAB
TAFAZO
TAF AMD
KAZO 300246Z 3003/3024 16004KT P6SM OVC025
     FM300900 18003KT 4SM BR OVC015
     FM301200 20003KT P6SM VCSH BKN035
     FM301400 24007KT P6SM VCTS BKN025CB=



000
FTUS43 KGRR 300245 AAB
TAFJXN
TAF AMD
KJXN 300245Z 3003/3024 16006KT P6SM OVC030
     FM300700 14003KT 4SM BR BKN015
     FM301100 VRB03KT 1 1/2SM BR OVC008
     FM301400 24004KT 4SM BR OVC015
     FM301600 28006KT P6SM VCTS OVC035CB=



000
FTUS43 KGRR 300057 AAA
TAFAZO
TAF AMD
KAZO 300057Z 3001/3024 16005KT P6SM BKN025
     FM300300 16004KT P6SM SCT025
     FM300700 18003KT 4SM BR OVC015
     FM301200 20003KT P6SM VCSH BKN035
     FM301400 24007KT P6SM VCTS BKN025CB=



000
FTUS43 KGRR 300054 AAA
TAFBTL
TAF AMD
KBTL 300054Z 3001/3024 16006KT P6SM SCT025
      TEMPO 3001/3003 BKN025
     FM300300 16004KT P6SM SCT200
     FM300700 18003KT 4SM BR OVC015
     FM301200 20003KT P6SM VCSH BKN035
     FM301400 24007KT P6SM VCTS BKN035CB=



000
FTUS43 KGRR 300054 AAA
TAFBTL
TAF AMD
KBTL 300054Z 3001/3024 16006KT P6SM SCT025
      TEMPO 3001/3003 BKN025
     FM300300 16004KT P6SM SCT200
     FM300700 18003KT 4SM BR OVC015
     FM301200 20003KT P6SM VCSH BKN035
     FM301400 24007KT P6SM VCTS BKN035CB=



000
FTUS43 KGRR 300043 AAA
TAFJXN
TAF AMD
KJXN 300043Z 3001/3024 16006KT P6SM SCT035
      TEMPO 3001/3004 BKN028
     FM300700 14003KT 4SM BR BKN015
     FM301100 VRB03KT 1 1/2SM BR OVC008
     FM301400 24004KT 4SM BR OVC015
     FM301600 28006KT P6SM VCTS OVC035CB=



000
FTUS43 KGRR 300043 AAA
TAFJXN
TAF AMD
KJXN 300043Z 3001/3024 16006KT P6SM SCT035
      TEMPO 3001/3004 BKN028
     FM300700 14003KT 4SM BR BKN015
     FM301100 VRB03KT 1 1/2SM BR OVC008
     FM301400 24004KT 4SM BR OVC015
     FM301600 28006KT P6SM VCTS OVC035CB=



000
FTUS43 KGRR 292331
TAFJXN
TAF
KJXN 292331Z 3000/3024 16006KT P6SM SCT035
     FM300700 14003KT 4SM BR BKN015
     FM301100 VRB03KT 1 1/2SM BR OVC008
     FM301400 24004KT 4SM BR OVC015
     FM301600 28006KT P6SM VCTS OVC035CB=



000
FTUS43 KGRR 292331
TAFMKG
TAF
KMKG 292331Z 3000/3024 19005KT P6SM SCT070
     FM300300 15003KT P6SM SCT200
     FM300700 16003KT 4SM BR OVC015
     FM300900 17004KT 4SM BR VCSH OVC015
     FM301400 20007KT P6SM VCTS BKN035CB=



000
FTUS43 KGRR 292331
TAFLAN
TAF
KLAN 292331Z 3000/3024 16006KT P6SM FEW045
     FM300700 18003KT 4SM BR BKN015
     FM301100 VRB03KT 1 1/2SM BR OVC008
     FM301400 24003KT 4SM BR OVC015
     FM301600 28006KT P6SM VCTS OVC035CB=



000
FTUS43 KGRR 292331
TAFBTL
TAF
KBTL 292331Z 3000/3024 16006KT P6SM SCT025
     FM300300 16004KT P6SM SCT200
     FM300700 18003KT 4SM BR OVC015
     FM301200 20003KT P6SM VCSH BKN035
     FM301400 24007KT P6SM VCTS BKN035CB=



000
FTUS43 KGRR 292331
TAFGRR
TAF
KGRR 292331Z 3000/3024 17008KT P6SM SCT035
     FM300300 14004KT P6SM SCT200
     FM300700 13003KT 4SM BR OVC015
     FM301200 15003KT P6SM VCSH BKN035
     FM301400 20007KT P6SM VCTS BKN035CB=



000
FTUS43 KGRR 292331
TAFAZO
TAF
KAZO 292331Z 3000/3024 16005KT P6SM SCT025
     FM300300 16004KT P6SM SCT200
     FM300700 18003KT 4SM BR OVC015
     FM301200 20003KT P6SM VCSH BKN035
     FM301400 24007KT P6SM VCTS BKN025CB=



000
FTUS43 KGRR 292123 AAC
TAFMKG
TAF AMD
KMKG 292123Z 2921/3018 14006KT P6SM VCSH SCT035 OVC070
     FM292200 15004KT P6SM VCSH SCT035 BKN150
     FM300300 VRB03KT P6SM SCT200
     FM300700 VRB04KT 4SM BR OVC015
     FM301400 19004KT P6SM BKN035=



000
FTUS43 KGRR 292122 AAA
TAFBTL
TAF AMD
KBTL 292122Z 2921/3018 17006KT P6SM VCSH SCT035 OVC070
     FM292200 16004KT P6SM VCSH SCT035 BKN150
     FM300300 VRB03KT P6SM SCT200
     FM300700 VRB04KT 1 1/2SM BR OVC008
     FM301300 VRB04KT 4SM BR OVC015
     FM301500 19004KT P6SM BKN035=



000
FTUS43 KGRR 292121 AAA
TAFAZO
TAF AMD
KAZO 292121Z 2921/3018 17010KT P6SM VCSH SCT035 BKN080
     FM292200 17006KT P6SM VCSH SCT035 BKN150
     FM300300 VRB03KT P6SM SCT200
     FM300700 VRB04KT 2SM BR OVC015
     FM301400 24004KT P6SM BKN035=



000
FTUS43 KGRR 291903 AAB
TAFMKG
TAF AMD
KMKG 291903Z 2919/3018 26006KT P6SM VCTS SCT035CB OVC070
      TEMPO 2919/2922 5SM -TSRA OVC030CB
     FM292200 25004KT P6SM VCSH SCT035 BKN150
     FM300300 VRB03KT P6SM SCT200
     FM300700 VRB04KT 4SM BR OVC015
     FM301400 19004KT P6SM BKN035=



000
FTUS43 KGRR 291826 AAA
TAFMKG
TAF AMD
KMKG 291826Z 2918/3018 26006KT P6SM VCTS SCT035CB OVC070
      TEMPO 2918/2922 1 1/2SM -TSRA OVC030CB
     FM292200 25004KT P6SM VCSH SCT035 BKN150
     FM300300 VRB03KT P6SM SCT200
     FM300700 VRB04KT 4SM BR OVC015
     FM301400 19004KT P6SM BKN035=



000
FTUS43 KGRR 291737
TAFLAN
TAF
KLAN 291737Z 2918/3018 17005KT P6SM VCTS SCT035CB BKN080
     FM292200 18004KT P6SM VCSH SCT035 BKN150
     FM300700 VRB03KT 4SM BR BKN015
     FM301100 VRB03KT 1 1/2SM BR OVC008
     FM301400 22001KT 4SM BR OVC015
     FM301600 00000KT P6SM OVC050=



000
FTUS43 KGRR 291737
TAFMKG
TAF
KMKG 291737Z 2918/3018 26006KT P6SM VCTS SCT035CB OVC070
      TEMPO 2918/2922 5SM -TSRA OVC030CB
     FM292200 25004KT P6SM VCSH SCT035 BKN150
     FM300300 VRB03KT P6SM SCT200
     FM300700 VRB04KT 4SM BR OVC015
     FM301400 19004KT P6SM BKN035=



000
FTUS43 KGRR 291737
TAFJXN
TAF
KJXN 291737Z 2918/3018 17010KT P6SM VCSH SCT025 BKN090
     FM300700 VRB03KT 4SM BR BKN015
     FM301100 VRB03KT 1 1/2SM BR OVC008
     FM301400 22001KT 4SM BR OVC015
     FM301600 00000KT P6SM OVC050=



000
FTUS43 KGRR 291737
TAFAZO
TAF
KAZO 291737Z 2918/3018 VRB05KT P6SM VCTS SCT035CB BKN080
      TEMPO 2918/2922 5SM -TSRA OVC030CB
     FM292200 25004KT P6SM VCSH SCT035 BKN150
     FM300300 VRB03KT P6SM SCT200
     FM300700 VRB04KT 2SM BR OVC015
     FM301400 24004KT P6SM BKN035=



000
FTUS43 KGRR 291737
TAFGRR
TAF
KGRR 291737Z 2918/3018 15004KT P6SM VCTS SCT030CB BKN050
     FM292200 16004KT P6SM VCSH SCT035 BKN150
     FM300300 VRB03KT P6SM SCT200
     FM300700 VRB04KT 4SM BR OVC015
     FM301400 21004KT P6SM BKN035=



000
FTUS43 KGRR 291737
TAFBTL
TAF
KBTL 291737Z 2918/3018 14006KT P6SM VCTS SCT035CB OVC070
      TEMPO 2918/2922 5SM -TSRA OVC030CB
     FM292200 16004KT P6SM VCSH SCT035 BKN150
     FM300300 VRB03KT P6SM SCT200
     FM300700 VRB04KT 1 1/2SM BR OVC008
     FM301300 VRB04KT 4SM BR OVC015
     FM301500 19004KT P6SM BKN035=



000
FTUS43 KGRR 291713 AAA
TAFMKG
TAF AMD
KMKG 291713Z 2917/3012 25006KT P6SM VCTS SCT035CB BKN070
      TEMPO 2917/2921 5SM -TSRA OVC030CB
     FM292100 26008KT P6SM VCSH BKN035
     FM300300 VRB03KT P6SM BKN060
     FM300700 00000KT 4SM BR BKN015=



000
FTUS43 KGRR 291138
TAFBTL
TAF
KBTL 291138Z 2912/3012 13005KT P6SM SCT035 OVC080
     FM291600 14008KT P6SM VCSH BKN035
     FM300300 VRB03KT P6SM OVC035
     FM300700 00000KT 4SM BR BKN015=



000
FTUS43 KGRR 291138
TAFJXN
TAF
KJXN 291138Z 2912/3012 13005KT P6SM SCT035 OVC080
     FM291600 14008KT P6SM VCSH BKN035
     FM300300 VRB03KT P6SM OVC035
     FM300500 00000KT 4SM BR BKN015=



000
FTUS43 KGRR 291138
TAFMKG
TAF
KMKG 291138Z 2912/3012 16006KT P6SM SCT035 BKN150
     FM291600 18008KT P6SM VCSH BKN035
     FM300300 VRB03KT P6SM BKN060
     FM300700 00000KT 4SM BR BKN015=



000
FTUS43 KGRR 291138
TAFGRR
TAF
KGRR 291138Z 2912/3012 13005KT P6SM SCT035 BKN150
     FM291600 14008KT P6SM VCSH BKN035
     FM300300 VRB03KT P6SM BKN060
     FM300700 00000KT 4SM BR BKN015=



000
FTUS43 KGRR 291138
TAFAZO
TAF
KAZO 291138Z 2912/3012 13005KT P6SM SCT035 OVC080
     FM291600 14008KT P6SM VCSH BKN035
     FM300300 VRB03KT P6SM OVC035
     FM300700 00000KT 4SM BR BKN015=



000
FTUS43 KGRR 291138
TAFLAN
TAF
KLAN 291138Z 2912/3012 13005KT P6SM SCT035 BKN150
     FM291600 14008KT P6SM VCSH BKN035
     FM300300 VRB03KT P6SM BKN060
     FM300700 00000KT 4SM BR BKN015=



000
FTUS43 KGRR 291138
TAFJXN
TAF
KJXN 291138Z 2912/3012 13005KT P6SM SCT035 OVC080
     FM291600 14008KT P6SM VCSH BKN035
     FM300300 VRB03KT P6SM OVC035
     FM300500 00000KT 4SM BR BKN015=



000
FTUS43 KGRR 291138
TAFBTL
TAF
KBTL 291138Z 2912/3012 13005KT P6SM SCT035 OVC080
     FM291600 14008KT P6SM VCSH BKN035
     FM300300 VRB03KT P6SM OVC035
     FM300700 00000KT 4SM BR BKN015=



000
FTUS43 KGRR 291138
TAFMKG
TAF
KMKG 291138Z 2912/3012 16006KT P6SM SCT035 BKN150
     FM291600 18008KT P6SM VCSH BKN035
     FM300300 VRB03KT P6SM BKN060
     FM300700 00000KT 4SM BR BKN015=



000
FTUS43 KGRR 291138
TAFAZO
TAF
KAZO 291138Z 2912/3012 13005KT P6SM SCT035 OVC080
     FM291600 14008KT P6SM VCSH BKN035
     FM300300 VRB03KT P6SM OVC035
     FM300700 00000KT 4SM BR BKN015=



000
FTUS43 KGRR 291138
TAFLAN
TAF
KLAN 291138Z 2912/3012 13005KT P6SM SCT035 BKN150
     FM291600 14008KT P6SM VCSH BKN035
     FM300300 VRB03KT P6SM BKN060
     FM300700 00000KT 4SM BR BKN015=



000
FTUS43 KGRR 291138
TAFGRR
TAF
KGRR 291138Z 2912/3012 13005KT P6SM SCT035 BKN150
     FM291600 14008KT P6SM VCSH BKN035
     FM300300 VRB03KT P6SM BKN060
     FM300700 00000KT 4SM BR BKN015=



000
FTUS43 KGRR 290540
TAFMKG
TAF
KMKG 290540Z 2906/3006 15005KT P6SM BKN200=



000
FTUS43 KGRR 290540
TAFAZO
TAF
KAZO 290540Z 2906/3006 15003KT P6SM BKN150
     FM291400 14007KT P6SM -RA OVC035=



000
FTUS43 KGRR 290540
TAFJXN
TAF
KJXN 290540Z 2906/3006 16003KT P6SM BKN150
     FM291400 16009KT P6SM -RA OVC035=



000
FTUS43 KGRR 290540
TAFLAN
TAF
KLAN 290540Z 2906/3006 19005KT P6SM SCT150
     FM291700 15009KT P6SM BKN050=



000
FTUS43 KGRR 290540
TAFGRR
TAF
KGRR 290540Z 2906/3006 15003KT P6SM BKN150
     FM291600 14008KT P6SM BKN040=



000
FTUS43 KGRR 290540
TAFBTL
TAF
KBTL 290540Z 2906/3006 16004KT P6SM BKN150
     FM291400 15008KT P6SM -RA OVC035=



000
FTUS43 KGRR 282335
TAFMKG
TAF
KMKG 282335Z 2900/2924 15005KT P6SM BKN240=



000
FTUS43 KGRR 282335
TAFGRR
TAF
KGRR 282335Z 2900/2924 24006KT P6SM SCT100
     FM290400 15003KT P6SM SCT100
     FM291600 14008KT P6SM BKN040=



000
FTUS43 KGRR 282335
TAFBTL
TAF
KBTL 282335Z 2900/2924 21005KT P6SM SCT150
     FM290200 16004KT P6SM BKN100
     FM291400 15008KT P6SM -RA OVC035=



000
FTUS43 KGRR 282335
TAFAZO
TAF
KAZO 282335Z 2900/2924 18005KT P6SM FEW060 BKN150
     FM290200 15003KT P6SM BKN100
     FM291400 14007KT P6SM -RA OVC035=



000
FTUS43 KGRR 282335
TAFLAN
TAF
KLAN 282335Z 2900/2924 19005KT P6SM SCT150
     FM291700 15009KT P6SM BKN050=



000
FTUS43 KGRR 282335
TAFJXN
TAF
KJXN 282335Z 2900/2924 23005KT P6SM SCT150
     FM290200 16003KT P6SM BKN150
     FM291400 16009KT P6SM -RA OVC035=



000
FTUS43 KGRR 282335
TAFAZO
TAF
KAZO 282335Z 2900/2924 18005KT P6SM FEW060 BKN150
     FM290200 15003KT P6SM BKN100
     FM291400 14007KT P6SM -RA OVC035=



000
FTUS43 KGRR 282335
TAFMKG
TAF
KMKG 282335Z 2900/2924 15005KT P6SM BKN240=



000
FTUS43 KGRR 282335
TAFBTL
TAF
KBTL 282335Z 2900/2924 21005KT P6SM SCT150
     FM290200 16004KT P6SM BKN100
     FM291400 15008KT P6SM -RA OVC035=



000
FTUS43 KGRR 282335
TAFJXN
TAF
KJXN 282335Z 2900/2924 23005KT P6SM SCT150
     FM290200 16003KT P6SM BKN150
     FM291400 16009KT P6SM -RA OVC035=



000
FTUS43 KGRR 282335
TAFGRR
TAF
KGRR 282335Z 2900/2924 24006KT P6SM SCT100
     FM290400 15003KT P6SM SCT100
     FM291600 14008KT P6SM BKN040=



000
FTUS43 KGRR 282335
TAFLAN
TAF
KLAN 282335Z 2900/2924 19005KT P6SM SCT150
     FM291700 15009KT P6SM BKN050=



000
FTUS43 KGRR 281737
TAFBTL
TAF
KBTL 281737Z 2818/2918 29008KT P6SM FEW045
     FM282100 23005KT P6SM FEW060 BKN250
     FM290200 14004KT P6SM BKN150
     FM291400 16005KT P6SM -RA OVC040=



000
FTUS43 KGRR 281737
TAFMKG
TAF
KMKG 281737Z 2818/2918 23010KT P6SM FEW045 BKN240
     FM290000 19005KT P6SM SCT150=



000
FTUS43 KGRR 281737
TAFJXN
TAF
KJXN 281737Z 2818/2918 33009KT P6SM FEW040
     FM290200 14004KT P6SM BKN150
     FM291400 16005KT P6SM -RA OVC040=



000
FTUS43 KGRR 281737
TAFGRR
TAF
KGRR 281737Z 2818/2918 31009KT P6SM SCT060 BKN250
     FM282100 25006KT P6SM FEW060 SCT250
     FM290200 16004KT P6SM SCT250=



000
FTUS43 KGRR 281737
TAFAZO
TAF
KAZO 281737Z 2818/2918 31005KT P6SM SCT250
     FM282100 23005KT P6SM FEW060 BKN250
     FM290200 14004KT P6SM BKN150
     FM291400 16005KT P6SM VCSH OVC040=



000
FTUS43 KGRR 281737
TAFLAN
TAF
KLAN 281737Z 2818/2918 36008KT P6SM FEW040
     FM290000 13005KT P6SM BKN150=



000
FTUS43 KGRR 281501 AAA
TAFAZO
TAF AMD
KAZO 281501Z 2815/2912 33005KT P6SM SKC
     FM282100 23005KT P6SM FEW060 BKN250
     FM290200 14004KT P6SM BKN150
     FM290900 16005KT P6SM -RA OVC050=



000
FTUS43 KGRR 281501 AAA
TAFBTL
TAF AMD
KBTL 281501Z 2815/2912 33006KT P6SM FEW060 SCT250
     FM290200 14004KT P6SM BKN150
     FM290900 16005KT P6SM -RA OVC050=



000
FTUS43 KGRR 281501 AAA
TAFGRR
TAF AMD
KGRR 281501Z 2815/2912 36003KT P6SM FEW230
     FM282100 29006KT P6SM FEW060 SCT250
     FM290300 13003KT P6SM BKN250=



000
FTUS43 KGRR 281501 AAA
TAFJXN
TAF AMD
KJXN 281501Z 2815/2912 34008KT P6SM SKC
     FM290000 19003KT P6SM SCT250
     FM290600 17005KT P6SM SCT050 BKN250=



000
FTUS43 KGRR 281501 AAA
TAFLAN
TAF AMD
KLAN 281501Z 2815/2912 33007KT P6SM FEW035
     FM290000 18005KT P6SM BKN150
     FM291100 16010KT P6SM VCSH SCT050 BKN150=



000
FTUS43 KGRR 281501 AAA
TAFMKG
TAF AMD
KMKG 281501Z 2815/2912 26007KT P6SM SCT250
     FM290200 14004KT P6SM SCT150=



000
FTUS43 KGRR 281125
TAFGRR
TAF
KGRR 281125Z 2812/2912 32006KT P6SM SCT250
     FM281800 29008KT P6SM SCT050 SCT250
     FM282100 23005KT P6SM FEW060 SCT250
     FM290300 13003KT P6SM BKN250
     FM290900 13005KT P6SM BKN140=



000
FTUS43 KGRR 281125
TAFJXN
TAF
KJXN 281125Z 2812/2912 32006KT P6SM SCT250
     FM281800 33007KT P6SM BKN050
     FM290000 25004KT P6SM SCT250
     FM290600 14004KT P6SM BKN250
     FM290900 16004KT P6SM BKN150=



000
FTUS43 KGRR 281125
TAFBTL
TAF
KBTL 281125Z 2812/2912 30004KT P6SM SCT250
     FM281600 29008KT P6SM SCT050 SCT250
     FM282100 23005KT P6SM FEW060 BKN250
     FM290700 15003KT P6SM BKN120
     FM291000 16005KT P6SM -RA OVC050=



000
FTUS43 KGRR 281125
TAFAZO
TAF
KAZO 281125Z 2812/2912 33006KT P6SM SCT250
     FM281600 29008KT P6SM SCT050 SCT250
     FM282100 23005KT P6SM FEW060 BKN250
     FM290600 15003KT P6SM BKN120
     FM290900 16005KT P6SM -RA OVC050=



000
FTUS43 KGRR 281125
TAFMKG
TAF
KMKG 281125Z 2812/2912 00000KT P6SM FEW200
     FM281500 22006KT P6SM SCT250
     FM290600 14004KT P6SM BKN140 OVC200=



000
FTUS43 KGRR 281125
TAFLAN
TAF
KLAN 281125Z 2812/2912 33006KT P6SM SCT250
     FM281800 33007KT P6SM BKN050
     FM290000 05004KT P6SM SCT250
     FM290600 14004KT P6SM BKN250
     FM290900 16004KT P6SM BKN150=



000
FTUS43 KGRR 280958 AAB
TAFJXN
TAF AMD
KJXN 280958Z 2810/2906 32008KT P6SM SCT027
     FM281400 34007KT P6SM BKN035
     FM282300 13005KT P6SM OVC035=



000
FTUS43 KGRR 280958 AAB
TAFJXN
TAF AMD
KJXN 280958Z 2810/2906 32008KT P6SM SCT027
     FM281400 34007KT P6SM BKN035
     FM282300 13005KT P6SM OVC035=



000
FTUS43 KGRR 280719 AAA
TAFJXN
TAF AMD
KJXN 280719Z 2807/2906 34008G16KT P6SM BKN025
     FM281400 34007KT P6SM BKN035
     FM282300 13005KT P6SM OVC035=



000
FTUS43 KGRR 280719 AAA
TAFJXN
TAF AMD
KJXN 280719Z 2807/2906 34008G16KT P6SM BKN025
     FM281400 34007KT P6SM BKN035
     FM282300 13005KT P6SM OVC035=



000
FTUS43 KGRR 280520
TAFMKG
TAF
KMKG 280520Z 2806/2906 01006KT P6SM SCT070
     FM281600 25008KT P6SM FEW050
     FM290000 13006KT P6SM BKN040=



000
FTUS43 KGRR 280520
TAFBTL
TAF
KBTL 280520Z 2806/2906 33009KT P6SM BKN100
     FM281500 34006KT P6SM SCT050
     FM290000 13006KT P6SM BKN040=



000
FTUS43 KGRR 280520
TAFAZO
TAF
KAZO 280520Z 2806/2906 33009KT P6SM SCT100
     FM281500 34006KT P6SM SCT050
     FM290000 13006KT P6SM BKN040=



000
FTUS43 KGRR 280520
TAFMKG
TAF
KMKG 280520Z 2806/2906 01006KT P6SM SCT070
     FM281600 25008KT P6SM FEW050
     FM290000 13006KT P6SM BKN040=



000
FTUS43 KGRR 280520
TAFJXN
TAF
KJXN 280520Z 2806/2906 34008G16KT P6SM BKN035 OVC100
     FM281400 34007KT P6SM BKN035
     FM282300 13005KT P6SM OVC035=



000
FTUS43 KGRR 280520
TAFAZO
TAF
KAZO 280520Z 2806/2906 33009KT P6SM SCT100
     FM281500 34006KT P6SM SCT050
     FM290000 13006KT P6SM BKN040=



000
FTUS43 KGRR 280520
TAFGRR
TAF
KGRR 280520Z 2806/2906 02009KT P6SM SCT250
     FM281500 34006KT P6SM SCT050
     FM290000 13006KT P6SM BKN040=



000
FTUS43 KGRR 280520
TAFLAN
TAF
KLAN 280520Z 2806/2906 36010KT P6SM SCT100
     FM281500 36010KT P6SM BKN045
     FM290000 13006KT P6SM BKN040=



    US Dept of Commerce
    National Oceanic and Atmospheric Administration
    National Weather Service
    1325 East West Highway
    Silver Spring, MD 20910
    Page Author: NWS Internet Services Team
Disclaimer
Information Quality
Credits
Glossary
Privacy Policy
Freedom of Information Act (FOIA)
About Us
Career Opportunities